sensor_id;sensor_type;location;lat;lon;timestamp;P1;durP1;ratioP1;P2;durP2;ratioP2
26963;SDS011;14521;48.148;-1.656;2023-05-19T00:02:17;1.52;;;1.15;;
26963;SDS011;14521;48.148;-1.656;2023-05-19T00:05:41;1.10;;;0.90;;
26963;SDS011;14521;48.148;-1.656;2023-05-19T00:12:30;0.93;;;0.82;;
26963;SDS011;14521;48.148;-1.656;2023-05-19T00:15:53;3.55;;;1.00;;
26963;SDS011;14521;48.148;-1.656;2023-05-19T00:19:15;1.02;;;0.90;;
26963;SDS011;14521;48.148;-1.656;2023-05-19T00:22:38;0.90;;;0.82;;
26963;SDS011;14521;48.148;-1.656;2023-05-19T00:26:01;3.03;;;0.85;;
26963;SDS011;14521;48.148;-1.656;2023-05-19T00:29:23;0.98;;;0.70;;
26963;SDS011;14521;48.148;-1.656;2023-05-19T00:32:46;1.80;;;1.00;;
26963;SDS011;14521;48.148;-1.656;2023-05-19T00:36:08;1.25;;;0.70;;
26963;SDS011;14521;48.148;-1.656;2023-05-19T00:39:31;1.10;;;0.80;;
26963;SDS011;14521;48.148;-1.656;2023-05-19T00:42:53;1.52;;;0.95;;
26963;SDS011;14521;48.148;-1.656;2023-05-19T00:46:15;1.95;;;0.90;;
26963;SDS011;14521;48.148;-1.656;2023-05-19T00:49:38;1.08;;;0.98;;
26963;SDS011;14521;48.148;-1.656;2023-05-19T00:53:01;1.20;;;0.82;;
26963;SDS011;14521;48.148;-1.656;2023-05-19T00:56:23;0.80;;;0.80;;
26963;SDS011;14521;48.148;-1.656;2023-05-19T00:59:47;1.48;;;1.02;;
26963;SDS011;14521;48.148;-1.656;2023-05-19T01:03:09;1.00;;;0.77;;
26963;SDS011;14521;48.148;-1.656;2023-05-19T01:06:33;1.23;;;0.90;;
26963;SDS011;14521;48.148;-1.656;2023-05-19T01:09:58;0.90;;;0.80;;
26963;SDS011;14521;48.148;-1.656;2023-05-19T01:13:20;0.70;;;0.70;;
26963;SDS011;14521;48.148;-1.656;2023-05-19T01:16:49;1.40;;;0.80;;
26963;SDS011;14521;48.148;-1.656;2023-05-19T01:20:37;0.70;;;0.70;;
26963;SDS011;14521;48.148;-1.656;2023-05-19T01:24:12;1.90;;;0.80;;
26963;SDS011;14521;48.148;-1.656;2023-05-19T01:31:44;2.92;;;0.70;;
26963;SDS011;14521;48.148;-1.656;2023-05-19T01:35:11;1.05;;;0.80;;
26963;SDS011;14521;48.148;-1.656;2023-05-19T01:38:39;1.05;;;0.73;;
26963;SDS011;14521;48.148;-1.656;2023-05-19T01:42:03;1.60;;;0.85;;
26963;SDS011;14521;48.148;-1.656;2023-05-19T01:45:27;1.65;;;1.10;;
26963;SDS011;14521;48.148;-1.656;2023-05-19T01:48:51;2.20;;;0.70;;
26963;SDS011;14521;48.148;-1.656;2023-05-19T01:52:14;1.90;;;0.90;;
26963;SDS011;14521;48.148;-1.656;2023-05-19T01:55:41;1.20;;;1.00;;
26963;SDS011;14521;48.148;-1.656;2023-05-19T01:59:11;1.35;;;0.80;;
26963;SDS011;14521;48.148;-1.656;2023-05-19T02:03:05;2.45;;;0.80;;
26963;SDS011;14521;48.148;-1.656;2023-05-19T02:10:05;0.70;;;0.70;;
26963;SDS011;14521;48.148;-1.656;2023-05-19T02:13:36;1.35;;;0.95;;
26963;SDS011;14521;48.148;-1.656;2023-05-19T02:17:00;4.25;;;0.88;;
26963;SDS011;14521;48.148;-1.656;2023-05-19T02:20:25;0.80;;;0.80;;
26963;SDS011;14521;48.148;-1.656;2023-05-19T02:23:47;2.00;;;1.00;;
26963;SDS011;14521;48.148;-1.656;2023-05-19T02:27:13;1.75;;;1.00;;
26963;SDS011;14521;48.148;-1.656;2023-05-19T02:30:36;1.70;;;0.82;;
26963;SDS011;14521;48.148;-1.656;2023-05-19T02:33:59;1.27;;;1.00;;
26963;SDS011;14521;48.148;-1.656;2023-05-19T02:37:21;2.53;;;1.00;;
26963;SDS011;14521;48.148;-1.656;2023-05-19T02:40:50;2.70;;;0.98;;
26963;SDS011;14521;48.148;-1.656;2023-05-19T02:44:13;1.23;;;0.80;;
26963;SDS011;14521;48.148;-1.656;2023-05-19T02:47:36;1.75;;;0.70;;
26963;SDS011;14521;48.148;-1.656;2023-05-19T02:51:00;0.93;;;0.82;;
26963;SDS011;14521;48.148;-1.656;2023-05-19T02:54:22;0.82;;;0.77;;
26963;SDS011;14521;48.148;-1.656;2023-05-19T02:57:44;0.90;;;0.80;;
26963;SDS011;14521;48.148;-1.656;2023-05-19T03:01:07;1.45;;;0.88;;
26963;SDS011;14521;48.148;-1.656;2023-05-19T03:04:30;1.10;;;0.90;;
26963;SDS011;14521;48.148;-1.656;2023-05-19T03:07:52;2.40;;;1.08;;
26963;SDS011;14521;48.148;-1.656;2023-05-19T03:11:15;1.98;;;0.60;;
26963;SDS011;14521;48.148;-1.656;2023-05-19T03:14:37;2.92;;;1.48;;
26963;SDS011;14521;48.148;-1.656;2023-05-19T03:18:00;2.22;;;0.82;;
26963;SDS011;14521;48.148;-1.656;2023-05-19T03:21:22;1.50;;;1.35;;
26963;SDS011;14521;48.148;-1.656;2023-05-19T03:24:44;0.73;;;0.70;;
26963;SDS011;14521;48.148;-1.656;2023-05-19T03:28:07;1.20;;;0.80;;
26963;SDS011;14521;48.148;-1.656;2023-05-19T03:31:30;1.15;;;0.80;;
26963;SDS011;14521;48.148;-1.656;2023-05-19T03:34:53;1.23;;;0.70;;
26963;SDS011;14521;48.148;-1.656;2023-05-19T03:38:15;1.00;;;0.70;;
26963;SDS011;14521;48.148;-1.656;2023-05-19T03:41:45;1.05;;;0.80;;
26963;SDS011;14521;48.148;-1.656;2023-05-19T03:45:08;0.80;;;0.80;;
26963;SDS011;14521;48.148;-1.656;2023-05-19T03:48:30;3.58;;;1.00;;
26963;SDS011;14521;48.148;-1.656;2023-05-19T03:52:15;1.17;;;0.80;;
26963;SDS011;14521;48.148;-1.656;2023-05-19T03:55:46;0.90;;;0.80;;
26963;SDS011;14521;48.148;-1.656;2023-05-19T03:59:10;1.10;;;0.80;;
26963;SDS011;14521;48.148;-1.656;2023-05-19T04:02:33;1.50;;;0.90;;
26963;SDS011;14521;48.148;-1.656;2023-05-19T04:05:55;1.42;;;0.80;;
26963;SDS011;14521;48.148;-1.656;2023-05-19T04:09:18;1.30;;;0.95;;
26963;SDS011;14521;48.148;-1.656;2023-05-19T04:12:40;2.17;;;0.77;;
26963;SDS011;14521;48.148;-1.656;2023-05-19T04:16:02;1.52;;;0.75;;
26963;SDS011;14521;48.148;-1.656;2023-05-19T04:19:25;0.95;;;0.80;;
26963;SDS011;14521;48.148;-1.656;2023-05-19T04:22:49;2.00;;;0.73;;
26963;SDS011;14521;48.148;-1.656;2023-05-19T04:26:11;2.05;;;0.68;;
26963;SDS011;14521;48.148;-1.656;2023-05-19T04:29:35;1.33;;;0.80;;
26963;SDS011;14521;48.148;-1.656;2023-05-19T04:32:58;1.92;;;1.25;;
26963;SDS011;14521;48.148;-1.656;2023-05-19T04:36:22;2.58;;;0.70;;
26963;SDS011;14521;48.148;-1.656;2023-05-19T04:39:46;1.58;;;0.60;;
26963;SDS011;14521;48.148;-1.656;2023-05-19T04:43:09;3.78;;;0.80;;
26963;SDS011;14521;48.148;-1.656;2023-05-19T04:46:33;3.10;;;0.80;;
26963;SDS011;14521;48.148;-1.656;2023-05-19T04:49:55;1.23;;;0.70;;
26963;SDS011;14521;48.148;-1.656;2023-05-19T04:53:18;1.65;;;0.80;;
26963;SDS011;14521;48.148;-1.656;2023-05-19T04:56:43;0.93;;;0.60;;
26963;SDS011;14521;48.148;-1.656;2023-05-19T05:00:05;0.60;;;0.60;;
26963;SDS011;14521;48.148;-1.656;2023-05-19T05:03:46;1.05;;;0.80;;
26963;SDS011;14521;48.148;-1.656;2023-05-19T05:07:09;1.35;;;0.60;;
26963;SDS011;14521;48.148;-1.656;2023-05-19T05:10:32;2.10;;;0.98;;
26963;SDS011;14521;48.148;-1.656;2023-05-19T05:13:55;2.15;;;0.65;;
26963;SDS011;14521;48.148;-1.656;2023-05-19T05:17:23;4.68;;;0.80;;
26963;SDS011;14521;48.148;-1.656;2023-05-19T05:20:46;0.70;;;0.60;;
26963;SDS011;14521;48.148;-1.656;2023-05-19T05:24:09;4.32;;;0.95;;
26963;SDS011;14521;48.148;-1.656;2023-05-19T05:27:33;0.88;;;0.80;;
26963;SDS011;14521;48.148;-1.656;2023-05-19T05:30:58;4.35;;;0.70;;
26963;SDS011;14521;48.148;-1.656;2023-05-19T05:34:20;4.78;;;0.73;;
26963;SDS011;14521;48.148;-1.656;2023-05-19T05:37:44;1.58;;;0.80;;
26963;SDS011;14521;48.148;-1.656;2023-05-19T05:41:07;3.45;;;1.10;;
26963;SDS011;14521;48.148;-1.656;2023-05-19T05:44:30;1.98;;;0.82;;
26963;SDS011;14521;48.148;-1.656;2023-05-19T05:47:55;2.72;;;0.80;;
26963;SDS011;14521;48.148;-1.656;2023-05-19T05:51:21;4.80;;;1.00;;
26963;SDS011;14521;48.148;-1.656;2023-05-19T05:54:44;4.60;;;0.90;;
26963;SDS011;14521;48.148;-1.656;2023-05-19T05:58:09;10.23;;;0.95;;
26963;SDS011;14521;48.148;-1.656;2023-05-19T06:01:32;1.13;;;0.85;;
26963;SDS011;14521;48.148;-1.656;2023-05-19T06:05:02;0.98;;;0.70;;
26963;SDS011;14521;48.148;-1.656;2023-05-19T06:08:27;2.60;;;0.77;;
26963;SDS011;14521;48.148;-1.656;2023-05-19T06:11:49;1.13;;;0.60;;
26963;SDS011;14521;48.148;-1.656;2023-05-19T06:15:12;4.72;;;2.03;;
26963;SDS011;14521;48.148;-1.656;2023-05-19T06:19:04;9.23;;;1.85;;
26963;SDS011;14521;48.148;-1.656;2023-05-19T06:22:26;5.93;;;2.08;;
26963;SDS011;14521;48.148;-1.656;2023-05-19T06:25:49;11.30;;;2.10;;
26963;SDS011;14521;48.148;-1.656;2023-05-19T06:29:12;4.68;;;1.95;;
26963;SDS011;14521;48.148;-1.656;2023-05-19T06:32:34;6.25;;;3.30;;
26963;SDS011;14521;48.148;-1.656;2023-05-19T06:35:57;6.75;;;2.70;;
26963;SDS011;14521;48.148;-1.656;2023-05-19T06:39:20;6.97;;;3.15;;
26963;SDS011;14521;48.148;-1.656;2023-05-19T06:42:42;5.63;;;2.92;;
26963;SDS011;14521;48.148;-1.656;2023-05-19T06:46:10;7.20;;;3.22;;
26963;SDS011;14521;48.148;-1.656;2023-05-19T06:49:33;6.70;;;3.20;;
26963;SDS011;14521;48.148;-1.656;2023-05-19T06:52:56;6.50;;;2.80;;
26963;SDS011;14521;48.148;-1.656;2023-05-19T06:56:20;4.88;;;2.97;;
26963;SDS011;14521;48.148;-1.656;2023-05-19T06:59:44;10.25;;;3.47;;
26963;SDS011;14521;48.148;-1.656;2023-05-19T07:03:08;7.32;;;3.20;;
26963;SDS011;14521;48.148;-1.656;2023-05-19T07:06:31;5.32;;;3.35;;
26963;SDS011;14521;48.148;-1.656;2023-05-19T07:09:54;7.60;;;2.97;;
26963;SDS011;14521;48.148;-1.656;2023-05-19T07:13:19;7.28;;;2.67;;
26963;SDS011;14521;48.148;-1.656;2023-05-19T07:16:42;4.57;;;2.97;;
26963;SDS011;14521;48.148;-1.656;2023-05-19T07:20:04;5.05;;;2.75;;
26963;SDS011;14521;48.148;-1.656;2023-05-19T07:23:27;6.25;;;2.50;;
26963;SDS011;14521;48.148;-1.656;2023-05-19T07:26:49;5.60;;;2.58;;
26963;SDS011;14521;48.148;-1.656;2023-05-19T07:30:12;6.80;;;2.90;;
26963;SDS011;14521;48.148;-1.656;2023-05-19T07:33:34;6.80;;;3.00;;
26963;SDS011;14521;48.148;-1.656;2023-05-19T07:36:57;5.78;;;2.88;;
26963;SDS011;14521;48.148;-1.656;2023-05-19T07:40:19;2.97;;;2.55;;
26963;SDS011;14521;48.148;-1.656;2023-05-19T07:43:41;9.30;;;3.00;;
26963;SDS011;14521;48.148;-1.656;2023-05-19T07:47:04;6.78;;;3.00;;
26963;SDS011;14521;48.148;-1.656;2023-05-19T07:50:26;5.28;;;2.67;;
26963;SDS011;14521;48.148;-1.656;2023-05-19T07:53:49;5.28;;;2.58;;
26963;SDS011;14521;48.148;-1.656;2023-05-19T07:57:12;5.97;;;2.53;;
26963;SDS011;14521;48.148;-1.656;2023-05-19T08:00:35;5.78;;;2.80;;
26963;SDS011;14521;48.148;-1.656;2023-05-19T08:03:58;4.65;;;2.10;;
26963;SDS011;14521;48.148;-1.656;2023-05-19T08:07:20;14.82;;;3.50;;
26963;SDS011;14521;48.148;-1.656;2023-05-19T08:10:46;8.48;;;2.55;;
26963;SDS011;14521;48.148;-1.656;2023-05-19T08:14:08;6.45;;;2.67;;
26963;SDS011;14521;48.148;-1.656;2023-05-19T08:17:31;4.85;;;2.05;;
26963;SDS011;14521;48.148;-1.656;2023-05-19T08:20:53;3.58;;;2.00;;
26963;SDS011;14521;48.148;-1.656;2023-05-19T08:24:16;5.47;;;1.60;;
26963;SDS011;14521;48.148;-1.656;2023-05-19T08:27:39;6.50;;;2.08;;
26963;SDS011;14521;48.148;-1.656;2023-05-19T08:31:01;8.98;;;1.90;;
26963;SDS011;14521;48.148;-1.656;2023-05-19T08:34:24;2.53;;;1.73;;
26963;SDS011;14521;48.148;-1.656;2023-05-19T08:37:46;3.83;;;1.73;;
26963;SDS011;14521;48.148;-1.656;2023-05-19T08:41:09;5.20;;;1.63;;
26963;SDS011;14521;48.148;-1.656;2023-05-19T08:44:31;1.77;;;1.20;;
26963;SDS011;14521;48.148;-1.656;2023-05-19T08:47:54;3.03;;;1.42;;
26963;SDS011;14521;48.148;-1.656;2023-05-19T08:51:26;6.18;;;1.38;;
26963;SDS011;14521;48.148;-1.656;2023-05-19T08:54:59;5.10;;;1.50;;
26963;SDS011;14521;48.148;-1.656;2023-05-19T08:58:30;4.25;;;1.77;;
26963;SDS011;14521;48.148;-1.656;2023-05-19T09:01:54;4.18;;;1.40;;
26963;SDS011;14521;48.148;-1.656;2023-05-19T09:05:17;3.28;;;1.30;;
26963;SDS011;14521;48.148;-1.656;2023-05-19T09:08:40;3.05;;;1.60;;
26963;SDS011;14521;48.148;-1.656;2023-05-19T09:12:03;5.88;;;1.65;;
26963;SDS011;14521;48.148;-1.656;2023-05-19T09:15:26;5.80;;;1.70;;
26963;SDS011;14521;48.148;-1.656;2023-05-19T09:18:53;2.08;;;1.45;;
26963;SDS011;14521;48.148;-1.656;2023-05-19T09:22:19;5.40;;;1.25;;
26963;SDS011;14521;48.148;-1.656;2023-05-19T09:25:51;2.88;;;1.58;;
26963;SDS011;14521;48.148;-1.656;2023-05-19T09:29:14;3.25;;;1.40;;
26963;SDS011;14521;48.148;-1.656;2023-05-19T09:32:37;8.00;;;1.60;;
26963;SDS011;14521;48.148;-1.656;2023-05-19T09:36:00;2.28;;;1.10;;
26963;SDS011;14521;48.148;-1.656;2023-05-19T09:39:24;2.67;;;1.48;;
26963;SDS011;14521;48.148;-1.656;2023-05-19T09:42:47;5.10;;;1.65;;
26963;SDS011;14521;48.148;-1.656;2023-05-19T09:46:09;4.13;;;1.40;;
26963;SDS011;14521;48.148;-1.656;2023-05-19T09:49:35;4.95;;;1.38;;
26963;SDS011;14521;48.148;-1.656;2023-05-19T09:52:57;1.80;;;1.60;;
26963;SDS011;14521;48.148;-1.656;2023-05-19T09:56:21;4.20;;;1.60;;
26963;SDS011;14521;48.148;-1.656;2023-05-19T10:03:08;4.53;;;1.52;;
26963;SDS011;14521;48.148;-1.656;2023-05-19T10:06:31;3.03;;;1.60;;
26963;SDS011;14521;48.148;-1.656;2023-05-19T10:09:54;7.13;;;1.80;;
26963;SDS011;14521;48.148;-1.656;2023-05-19T10:13:19;5.13;;;1.75;;
26963;SDS011;14521;48.148;-1.656;2023-05-19T10:16:43;8.38;;;1.50;;
26963;SDS011;14521;48.148;-1.656;2023-05-19T10:20:09;5.68;;;1.67;;
26963;SDS011;14521;48.148;-1.656;2023-05-19T10:23:33;3.25;;;1.67;;
26963;SDS011;14521;48.148;-1.656;2023-05-19T10:26:57;2.22;;;1.50;;
26963;SDS011;14521;48.148;-1.656;2023-05-19T10:30:29;2.90;;;1.50;;
26963;SDS011;14521;48.148;-1.656;2023-05-19T10:33:55;5.18;;;1.73;;
26963;SDS011;14521;48.148;-1.656;2023-05-19T10:37:44;4.03;;;2.45;;
26963;SDS011;14521;48.148;-1.656;2023-05-19T10:41:27;3.00;;;1.40;;
26963;SDS011;14521;48.148;-1.656;2023-05-19T10:48:36;5.00;;;1.55;;
26963;SDS011;14521;48.148;-1.656;2023-05-19T10:51:59;4.60;;;2.03;;
26963;SDS011;14521;48.148;-1.656;2023-05-19T10:59:29;1.63;;;1.52;;
26963;SDS011;14521;48.148;-1.656;2023-05-19T11:02:53;5.10;;;1.70;;
26963;SDS011;14521;48.148;-1.656;2023-05-19T11:06:36;1.52;;;1.42;;
26963;SDS011;14521;48.148;-1.656;2023-05-19T11:09:59;3.50;;;1.67;;
26963;SDS011;14521;48.148;-1.656;2023-05-19T11:13:30;2.28;;;1.77;;
26963;SDS011;14521;48.148;-1.656;2023-05-19T11:16:55;3.08;;;1.70;;
26963;SDS011;14521;48.148;-1.656;2023-05-19T11:20:23;7.10;;;1.73;;
26963;SDS011;14521;48.148;-1.656;2023-05-19T11:23:47;4.15;;;1.88;;
26963;SDS011;14521;48.148;-1.656;2023-05-19T11:30:54;4.80;;;1.95;;
26963;SDS011;14521;48.148;-1.656;2023-05-19T11:34:20;1.70;;;1.60;;
26963;SDS011;14521;48.148;-1.656;2023-05-19T11:37:46;3.53;;;1.77;;
26963;SDS011;14521;48.148;-1.656;2023-05-19T11:41:12;5.82;;;2.13;;
26963;SDS011;14521;48.148;-1.656;2023-05-19T11:44:38;4.93;;;2.13;;
26963;SDS011;14521;48.148;-1.656;2023-05-19T11:48:09;3.28;;;1.80;;
26963;SDS011;14521;48.148;-1.656;2023-05-19T11:51:36;3.88;;;2.22;;
26963;SDS011;14521;48.148;-1.656;2023-05-19T11:54:59;4.85;;;1.73;;
26963;SDS011;14521;48.148;-1.656;2023-05-19T11:58:25;2.95;;;2.00;;
26963;SDS011;14521;48.148;-1.656;2023-05-19T12:01:48;2.30;;;2.10;;
26963;SDS011;14521;48.148;-1.656;2023-05-19T12:05:16;2.50;;;2.10;;
26963;SDS011;14521;48.148;-1.656;2023-05-19T12:08:40;3.55;;;2.15;;
26963;SDS011;14521;48.148;-1.656;2023-05-19T12:12:02;3.67;;;2.50;;
26963;SDS011;14521;48.148;-1.656;2023-05-19T12:15:25;3.42;;;2.03;;
26963;SDS011;14521;48.148;-1.656;2023-05-19T12:18:48;2.88;;;2.00;;
26963;SDS011;14521;48.148;-1.656;2023-05-19T12:22:10;3.60;;;1.90;;
26963;SDS011;14521;48.148;-1.656;2023-05-19T12:25:33;2.88;;;2.22;;
26963;SDS011;14521;48.148;-1.656;2023-05-19T12:28:57;4.63;;;2.13;;
26963;SDS011;14521;48.148;-1.656;2023-05-19T12:32:23;4.80;;;1.70;;
26963;SDS011;14521;48.148;-1.656;2023-05-19T12:35:46;3.15;;;2.10;;
26963;SDS011;14521;48.148;-1.656;2023-05-19T12:39:10;2.15;;;1.90;;
26963;SDS011;14521;48.148;-1.656;2023-05-19T12:42:33;4.55;;;2.45;;
26963;SDS011;14521;48.148;-1.656;2023-05-19T12:45:56;4.28;;;2.30;;
26963;SDS011;14521;48.148;-1.656;2023-05-19T12:49:18;3.22;;;2.15;;
26963;SDS011;14521;48.148;-1.656;2023-05-19T12:52:44;3.15;;;1.83;;
26963;SDS011;14521;48.148;-1.656;2023-05-19T12:56:11;3.17;;;1.95;;
26963;SDS011;14521;48.148;-1.656;2023-05-19T12:59:35;8.10;;;2.00;;
26963;SDS011;14521;48.148;-1.656;2023-05-19T13:03:00;4.93;;;2.42;;
26963;SDS011;14521;48.148;-1.656;2023-05-19T13:06:26;2.30;;;1.83;;
26963;SDS011;14521;48.148;-1.656;2023-05-19T13:09:48;2.15;;;1.77;;
26963;SDS011;14521;48.148;-1.656;2023-05-19T13:13:10;2.53;;;2.13;;
26963;SDS011;14521;48.148;-1.656;2023-05-19T13:16:33;2.40;;;2.20;;
26963;SDS011;14521;48.148;-1.656;2023-05-19T13:19:56;3.83;;;2.17;;
26963;SDS011;14521;48.148;-1.656;2023-05-19T13:23:19;5.10;;;3.13;;
26963;SDS011;14521;48.148;-1.656;2023-05-19T13:26:42;2.90;;;1.70;;
26963;SDS011;14521;48.148;-1.656;2023-05-19T13:30:04;2.45;;;1.70;;
26963;SDS011;14521;48.148;-1.656;2023-05-19T13:33:27;3.60;;;1.85;;
26963;SDS011;14521;48.148;-1.656;2023-05-19T13:36:50;3.67;;;2.13;;
26963;SDS011;14521;48.148;-1.656;2023-05-19T13:40:12;1.98;;;1.80;;
26963;SDS011;14521;48.148;-1.656;2023-05-19T13:43:34;5.82;;;1.75;;
26963;SDS011;14521;48.148;-1.656;2023-05-19T13:46:57;2.05;;;1.77;;
26963;SDS011;14521;48.148;-1.656;2023-05-19T13:50:19;2.38;;;1.73;;
26963;SDS011;14521;48.148;-1.656;2023-05-19T13:53:42;1.70;;;1.45;;
26963;SDS011;14521;48.148;-1.656;2023-05-19T13:57:04;5.03;;;1.60;;
26963;SDS011;14521;48.148;-1.656;2023-05-19T14:00:27;4.15;;;1.83;;
26963;SDS011;14521;48.148;-1.656;2023-05-19T14:03:49;2.35;;;1.95;;
26963;SDS011;14521;48.148;-1.656;2023-05-19T14:07:12;1.92;;;1.50;;
26963;SDS011;14521;48.148;-1.656;2023-05-19T14:10:34;2.90;;;1.98;;
26963;SDS011;14521;48.148;-1.656;2023-05-19T14:13:57;2.45;;;1.98;;
26963;SDS011;14521;48.148;-1.656;2023-05-19T14:17:19;2.75;;;1.60;;
26963;SDS011;14521;48.148;-1.656;2023-05-19T14:20:41;3.63;;;1.75;;
26963;SDS011;14521;48.148;-1.656;2023-05-19T14:24:04;2.03;;;1.48;;
26963;SDS011;14521;48.148;-1.656;2023-05-19T14:27:26;2.30;;;1.90;;
26963;SDS011;14521;48.148;-1.656;2023-05-19T14:30:49;2.92;;;1.90;;
26963;SDS011;14521;48.148;-1.656;2023-05-19T14:34:11;3.00;;;2.13;;
26963;SDS011;14521;48.148;-1.656;2023-05-19T14:37:38;2.75;;;2.00;;
26963;SDS011;14521;48.148;-1.656;2023-05-19T14:41:00;2.70;;;1.92;;
26963;SDS011;14521;48.148;-1.656;2023-05-19T14:44:23;3.75;;;1.88;;
26963;SDS011;14521;48.148;-1.656;2023-05-19T14:47:50;3.17;;;1.67;;
26963;SDS011;14521;48.148;-1.656;2023-05-19T14:51:13;2.15;;;1.90;;
26963;SDS011;14521;48.148;-1.656;2023-05-19T14:54:35;2.17;;;1.98;;
26963;SDS011;14521;48.148;-1.656;2023-05-19T14:57:58;1.88;;;1.75;;
26963;SDS011;14521;48.148;-1.656;2023-05-19T15:01:20;2.63;;;1.80;;
26963;SDS011;14521;48.148;-1.656;2023-05-19T15:04:42;2.30;;;2.10;;
26963;SDS011;14521;48.148;-1.656;2023-05-19T15:08:05;2.20;;;2.00;;
26963;SDS011;14521;48.148;-1.656;2023-05-19T15:11:27;2.53;;;1.83;;
26963;SDS011;14521;48.148;-1.656;2023-05-19T15:14:50;3.67;;;2.03;;
26963;SDS011;14521;48.148;-1.656;2023-05-19T15:18:13;2.83;;;1.70;;
26963;SDS011;14521;48.148;-1.656;2023-05-19T15:21:39;2.95;;;2.10;;
26963;SDS011;14521;48.148;-1.656;2023-05-19T15:25:01;1.75;;;1.65;;
26963;SDS011;14521;48.148;-1.656;2023-05-19T15:28:25;4.20;;;2.10;;
26963;SDS011;14521;48.148;-1.656;2023-05-19T15:31:50;1.73;;;1.63;;
26963;SDS011;14521;48.148;-1.656;2023-05-19T15:35:13;1.70;;;1.60;;
26963;SDS011;14521;48.148;-1.656;2023-05-19T15:38:35;1.90;;;1.70;;
26963;SDS011;14521;48.148;-1.656;2023-05-19T15:41:58;2.30;;;2.10;;
26963;SDS011;14521;48.148;-1.656;2023-05-19T15:45:20;2.85;;;1.60;;
26963;SDS011;14521;48.148;-1.656;2023-05-19T15:48:42;2.10;;;1.90;;
26963;SDS011;14521;48.148;-1.656;2023-05-19T15:52:05;1.75;;;1.65;;
26963;SDS011;14521;48.148;-1.656;2023-05-19T15:55:27;2.42;;;1.95;;
26963;SDS011;14521;48.148;-1.656;2023-05-19T15:58:49;1.55;;;1.45;;
26963;SDS011;14521;48.148;-1.656;2023-05-19T16:02:12;1.73;;;1.50;;
26963;SDS011;14521;48.148;-1.656;2023-05-19T16:05:35;1.80;;;1.70;;
26963;SDS011;14521;48.148;-1.656;2023-05-19T16:08:58;4.55;;;1.65;;
26963;SDS011;14521;48.148;-1.656;2023-05-19T16:12:20;1.75;;;1.65;;
26963;SDS011;14521;48.148;-1.656;2023-05-19T16:15:42;1.80;;;1.70;;
26963;SDS011;14521;48.148;-1.656;2023-05-19T16:19:05;5.68;;;1.85;;
26963;SDS011;14521;48.148;-1.656;2023-05-19T16:22:27;3.88;;;1.90;;
26963;SDS011;14521;48.148;-1.656;2023-05-19T16:25:51;3.17;;;1.83;;
26963;SDS011;14521;48.148;-1.656;2023-05-19T16:29:15;6.83;;;2.20;;
26963;SDS011;14521;48.148;-1.656;2023-05-19T16:32:37;2.33;;;1.88;;
26963;SDS011;14521;48.148;-1.656;2023-05-19T16:36:00;3.97;;;1.83;;
26963;SDS011;14521;48.148;-1.656;2023-05-19T16:39:22;4.82;;;1.42;;
26963;SDS011;14521;48.148;-1.656;2023-05-19T16:42:44;5.68;;;2.03;;
26963;SDS011;14521;48.148;-1.656;2023-05-19T16:46:07;1.77;;;1.67;;
26963;SDS011;14521;48.148;-1.656;2023-05-19T16:49:30;1.85;;;1.75;;
26963;SDS011;14521;48.148;-1.656;2023-05-19T16:52:54;7.18;;;3.03;;
26963;SDS011;14521;48.148;-1.656;2023-05-19T16:56:16;4.30;;;1.85;;
26963;SDS011;14521;48.148;-1.656;2023-05-19T16:59:39;2.17;;;1.73;;
26963;SDS011;14521;48.148;-1.656;2023-05-19T17:03:01;8.23;;;2.17;;
26963;SDS011;14521;48.148;-1.656;2023-05-19T17:06:25;4.63;;;2.55;;
26963;SDS011;14521;48.148;-1.656;2023-05-19T17:09:47;8.63;;;2.33;;
26963;SDS011;14521;48.148;-1.656;2023-05-19T17:13:09;6.47;;;3.05;;
26963;SDS011;14521;48.148;-1.656;2023-05-19T17:16:35;4.47;;;2.03;;
26963;SDS011;14521;48.148;-1.656;2023-05-19T17:19:58;10.00;;;1.67;;
26963;SDS011;14521;48.148;-1.656;2023-05-19T17:23:20;6.22;;;3.20;;
26963;SDS011;14521;48.148;-1.656;2023-05-19T17:26:43;15.98;;;4.13;;
26963;SDS011;14521;48.148;-1.656;2023-05-19T17:30:05;7.43;;;3.53;;
26963;SDS011;14521;48.148;-1.656;2023-05-19T17:33:29;14.80;;;5.13;;
26963;SDS011;14521;48.148;-1.656;2023-05-19T17:36:52;12.68;;;4.97;;
26963;SDS011;14521;48.148;-1.656;2023-05-19T17:40:14;14.07;;;4.68;;
26963;SDS011;14521;48.148;-1.656;2023-05-19T17:43:37;10.85;;;4.30;;
26963;SDS011;14521;48.148;-1.656;2023-05-19T17:47:00;10.55;;;4.18;;
26963;SDS011;14521;48.148;-1.656;2023-05-19T17:50:23;6.63;;;3.35;;
26963;SDS011;14521;48.148;-1.656;2023-05-19T17:53:45;10.45;;;3.50;;
26963;SDS011;14521;48.148;-1.656;2023-05-19T17:57:09;8.50;;;3.95;;
26963;SDS011;14521;48.148;-1.656;2023-05-19T18:00:35;10.25;;;3.72;;
26963;SDS011;14521;48.148;-1.656;2023-05-19T18:03:58;9.77;;;4.13;;
26963;SDS011;14521;48.148;-1.656;2023-05-19T18:07:20;4.40;;;3.00;;
26963;SDS011;14521;48.148;-1.656;2023-05-19T18:10:46;8.23;;;3.33;;
26963;SDS011;14521;48.148;-1.656;2023-05-19T18:14:11;6.00;;;3.20;;
26963;SDS011;14521;48.148;-1.656;2023-05-19T18:17:34;7.13;;;3.30;;
26963;SDS011;14521;48.148;-1.656;2023-05-19T18:20:56;5.25;;;3.47;;
26963;SDS011;14521;48.148;-1.656;2023-05-19T18:24:18;5.07;;;3.33;;
26963;SDS011;14521;48.148;-1.656;2023-05-19T18:27:41;10.40;;;3.90;;
26963;SDS011;14521;48.148;-1.656;2023-05-19T18:31:04;10.60;;;3.35;;
26963;SDS011;14521;48.148;-1.656;2023-05-19T18:34:28;5.90;;;3.08;;
26963;SDS011;14521;48.148;-1.656;2023-05-19T18:37:53;5.57;;;3.70;;
26963;SDS011;14521;48.148;-1.656;2023-05-19T18:41:17;5.18;;;2.60;;
26963;SDS011;14521;48.148;-1.656;2023-05-19T18:44:39;3.80;;;2.70;;
26963;SDS011;14521;48.148;-1.656;2023-05-19T18:48:02;6.70;;;3.05;;
26963;SDS011;14521;48.148;-1.656;2023-05-19T18:51:25;8.77;;;3.70;;
26963;SDS011;14521;48.148;-1.656;2023-05-19T18:54:47;3.67;;;2.90;;
26963;SDS011;14521;48.148;-1.656;2023-05-19T18:58:11;6.10;;;3.10;;
26963;SDS011;14521;48.148;-1.656;2023-05-19T19:01:33;5.65;;;2.83;;
26963;SDS011;14521;48.148;-1.656;2023-05-19T19:04:55;4.60;;;3.03;;
26963;SDS011;14521;48.148;-1.656;2023-05-19T19:08:18;4.90;;;2.70;;
26963;SDS011;14521;48.148;-1.656;2023-05-19T19:11:40;9.57;;;2.70;;
26963;SDS011;14521;48.148;-1.656;2023-05-19T19:15:03;7.90;;;2.80;;
26963;SDS011;14521;48.148;-1.656;2023-05-19T19:18:25;3.97;;;2.50;;
26963;SDS011;14521;48.148;-1.656;2023-05-19T19:21:48;6.93;;;3.97;;
26963;SDS011;14521;48.148;-1.656;2023-05-19T19:25:10;2.83;;;2.05;;
26963;SDS011;14521;48.148;-1.656;2023-05-19T19:28:32;5.75;;;2.40;;
26963;SDS011;14521;48.148;-1.656;2023-05-19T19:31:55;2.40;;;2.08;;
26963;SDS011;14521;48.148;-1.656;2023-05-19T19:35:18;17.38;;;2.60;;
26963;SDS011;14521;48.148;-1.656;2023-05-19T19:38:40;4.78;;;1.90;;
26963;SDS011;14521;48.148;-1.656;2023-05-19T19:42:02;2.50;;;2.10;;
26963;SDS011;14521;48.148;-1.656;2023-05-19T19:45:25;3.80;;;1.90;;
26963;SDS011;14521;48.148;-1.656;2023-05-19T19:48:47;6.53;;;2.30;;
26963;SDS011;14521;48.148;-1.656;2023-05-19T19:52:09;2.10;;;1.90;;
26963;SDS011;14521;48.148;-1.656;2023-05-19T19:55:32;3.65;;;2.20;;
26963;SDS011;14521;48.148;-1.656;2023-05-19T19:58:54;4.00;;;2.10;;
26963;SDS011;14521;48.148;-1.656;2023-05-19T20:02:20;3.70;;;2.05;;
26963;SDS011;14521;48.148;-1.656;2023-05-19T20:05:42;1.85;;;1.75;;
26963;SDS011;14521;48.148;-1.656;2023-05-19T20:09:05;5.38;;;2.40;;
26963;SDS011;14521;48.148;-1.656;2023-05-19T20:12:27;2.17;;;1.73;;
26963;SDS011;14521;48.148;-1.656;2023-05-19T20:15:50;2.80;;;2.22;;
26963;SDS011;14521;48.148;-1.656;2023-05-19T20:19:13;2.22;;;2.03;;
26963;SDS011;14521;48.148;-1.656;2023-05-19T20:22:35;2.40;;;1.65;;
26963;SDS011;14521;48.148;-1.656;2023-05-19T20:25:59;3.53;;;2.00;;
26963;SDS011;14521;48.148;-1.656;2023-05-19T20:29:33;6.20;;;2.70;;
26963;SDS011;14521;48.148;-1.656;2023-05-19T20:32:56;3.10;;;1.80;;
26963;SDS011;14521;48.148;-1.656;2023-05-19T20:36:18;5.78;;;1.80;;